Time;durP1;ratioP1;P1;durP2;ratioP2;P2;SDS_P1;SDS_P2;PMS_P1;PMS_P2;Temp;Humidity;BMP_temperature;BMP_pressure;BME280_temperature;BME280_humidity;BME280_pressure;Samples;Min_cycle;Max_cycle;Signal;HPM_P1;HPM_P2
2024/02/03 00:01:17;;;;;;;16.30;5.75;;;;;;;;;;5075643;28;20020;-34
2024/02/03 00:03:42;;;;;;;17.52;5.78;;;;;;;;;;5074976;28;20052;-34
2024/02/03 00:06:07;;;;;;;16.35;5.40;;;;;;;;;;5074892;28;20081;-33
2024/02/03 00:08:32;;;;;;;15.05;5.45;;;;;;;;;;5074940;28;20490;-34
2024/02/03 00:10:58;;;;;;;17.15;5.50;;;;;;;;;;5074940;28;20541;-34
2024/02/03 00:13:23;;;;;;;17.73;6.20;;;;;;;;;;5074792;28;20013;-34
2024/02/03 00:15:48;;;;;;;17.08;5.70;;;;;;;;;;5074810;28;20025;-34
2024/02/03 00:18:13;;;;;;;15.40;5.45;;;;;;;;;;5074724;28;20103;-34
2024/02/03 00:20:39;;;;;;;18.17;5.68;;;;;;;;;;5074621;28;20064;-34
2024/02/03 00:23:04;;;;;;;16.58;5.55;;;;;;;;;;5074646;28;20020;-34
2024/02/03 00:25:29;;;;;;;18.77;5.20;;;;;;;;;;5075034;28;20364;-34
2024/02/03 00:27:54;;;;;;;16.08;5.60;;;;;;;;;;5074540;28;20021;-34
2024/02/03 00:30:19;;;;;;;20.02;5.78;;;;;;;;;;5074898;28;20103;-34
2024/02/03 00:32:45;;;;;;;16.42;5.90;;;;;;;;;;5074506;28;20439;-34
2024/02/03 00:35:10;;;;;;;19.70;5.30;;;;;;;;;;5073969;28;20514;-34
2024/02/03 00:37:35;;;;;;;21.40;6.45;;;;;;;;;;5074540;28;20455;-34
2024/02/03 00:40:00;;;;;;;15.52;5.00;;;;;;;;;;5073063;28;20021;-35
2024/02/03 00:42:26;;;;;;;18.25;5.30;;;;;;;;;;5074328;28;20024;-34
2024/02/03 00:44:51;;;;;;;13.52;5.75;;;;;;;;;;5074487;28;20017;-34
2024/02/03 00:47:16;;;;;;;16.30;4.70;;;;;;;;;;5074203;28;20077;-34
2024/02/03 00:49:44;;;;;;;18.60;5.25;;;;;;;;;;5074098;28;20096;-34
2024/02/03 00:52:09;;;;;;;18.65;5.30;;;;;;;;;;5074054;28;20078;-34
2024/02/03 00:54:34;;;;;;;21.50;5.45;;;;;;;;;;5072754;28;20029;-34
2024/02/03 00:56:59;;;;;;;18.88;5.07;;;;;;;;;;5073977;28;20025;-34
2024/02/03 00:59:25;;;;;;;19.65;4.75;;;;;;;;;;5074223;28;20028;-34
2024/02/03 01:01:50;;;;;;;20.83;4.60;;;;;;;;;;5073885;28;20406;-34
2024/02/03 01:04:15;;;;;;;17.88;5.57;;;;;;;;;;5073737;28;20076;-34
2024/02/03 01:06:40;;;;;;;14.88;4.70;;;;;;;;;;5074120;28;20073;-34
2024/02/03 01:09:06;;;;;;;12.95;4.65;;;;;;;;;;5073843;28;20074;-34
2024/02/03 01:11:33;;;;;;;17.67;4.18;;;;;;;;;;5073853;28;20021;-34
2024/02/03 01:13:58;;;;;;;20.65;4.63;;;;;;;;;;5073792;28;20022;-34
2024/02/03 01:16:23;;;;;;;14.73;4.38;;;;;;;;;;5074227;28;20027;-34
2024/02/03 01:18:49;;;;;;;15.63;4.68;;;;;;;;;;5073642;28;20089;-35
2024/02/03 01:21:14;;;;;;;18.73;4.82;;;;;;;;;;5073642;28;20048;-34
2024/02/03 01:23:40;;;;;;;17.27;4.10;;;;;;;;;;5074134;28;20024;-34
2024/02/03 01:26:05;;;;;;;14.60;3.85;;;;;;;;;;5073540;28;20073;-34
2024/02/03 01:28:30;;;;;;;14.57;4.07;;;;;;;;;;5073766;28;20016;-35
2024/02/03 01:30:55;;;;;;;14.88;3.95;;;;;;;;;;5073478;28;20050;-34
2024/02/03 01:33:21;;;;;;;14.27;3.95;;;;;;;;;;5073782;28;20021;-34
2024/02/03 01:35:46;;;;;;;17.50;5.00;;;;;;;;;;5074055;28;20066;-34
2024/02/03 01:38:12;;;;;;;11.13;3.75;;;;;;;;;;5073671;28;20023;-34
2024/02/03 01:40:37;;;;;;;13.68;3.40;;;;;;;;;;5073429;28;20383;-34
2024/02/03 01:43:02;;;;;;;14.55;3.80;;;;;;;;;;5073919;28;20089;-34
2024/02/03 01:45:28;;;;;;;13.35;3.90;;;;;;;;;;5073671;28;20383;-34
2024/02/03 01:47:54;;;;;;;14.10;3.70;;;;;;;;;;5072418;28;20013;-34
2024/02/03 01:50:20;;;;;;;11.85;3.67;;;;;;;;;;5073150;28;20056;-34
2024/02/03 01:52:45;;;;;;;17.77;4.53;;;;;;;;;;5073333;28;20091;-34
2024/02/03 01:55:11;;;;;;;13.85;4.03;;;;;;;;;;5073312;28;20017;-34
2024/02/03 01:57:38;;;;;;;10.25;3.90;;;;;;;;;;5073289;28;20414;-34
2024/02/03 02:00:05;;;;;;;17.50;3.88;;;;;;;;;;5073159;28;20046;-34
2024/02/03 02:02:30;;;;;;;14.13;3.53;;;;;;;;;;5072992;28;20021;-32
2024/02/03 02:04:55;;;;;;;12.45;3.47;;;;;;;;;;5073146;28;20108;-33
2024/02/03 02:07:20;;;;;;;13.82;3.97;;;;;;;;;;5073126;28;20115;-33
2024/02/03 02:09:48;;;;;;;15.75;4.38;;;;;;;;;;5073395;28;20017;-34
2024/02/03 02:12:13;;;;;;;21.05;4.32;;;;;;;;;;5072842;28;20095;-34
2024/02/03 02:14:38;;;;;;;17.73;4.32;;;;;;;;;;5073334;28;20055;-34
2024/02/03 02:17:03;;;;;;;15.25;4.03;;;;;;;;;;5073552;28;20406;-33
2024/02/03 02:19:29;;;;;;;17.52;4.03;;;;;;;;;;5073014;28;20024;-34
2024/02/03 02:21:54;;;;;;;21.25;4.20;;;;;;;;;;5073039;28;20024;-33
2024/02/03 02:24:19;;;;;;;17.35;3.97;;;;;;;;;;5073061;28;20028;-34
2024/02/03 02:26:44;;;;;;;16.38;4.50;;;;;;;;;;5073005;28;20016;-35
2024/02/03 02:29:10;;;;;;;14.05;4.03;;;;;;;;;;5073010;28;20039;-33
2024/02/03 02:31:35;;;;;;;17.13;3.80;;;;;;;;;;5072923;28;20032;-34
2024/02/03 02:34:00;;;;;;;13.95;4.00;;;;;;;;;;5072807;28;20035;-34
2024/02/03 02:36:25;;;;;;;17.88;4.13;;;;;;;;;;5072923;28;20012;-34
2024/02/03 02:38:50;;;;;;;22.48;4.10;;;;;;;;;;5072836;28;20024;-34
2024/02/03 02:41:16;;;;;;;14.15;3.55;;;;;;;;;;5072786;28;20463;-34
2024/02/03 02:43:41;;;;;;;16.63;3.85;;;;;;;;;;5073385;28;20467;-33
2024/02/03 02:46:06;;;;;;;19.23;3.55;;;;;;;;;;5072844;28;20463;-33
2024/02/03 02:48:31;;;;;;;11.35;3.47;;;;;;;;;;5072761;28;20094;-33
2024/02/03 02:50:57;;;;;;;13.05;3.63;;;;;;;;;;5071824;28;20052;-34
2024/02/03 02:53:22;;;;;;;17.45;3.67;;;;;;;;;;5072546;28;20059;-34
2024/02/03 02:55:47;;;;;;;12.77;3.30;;;;;;;;;;5072738;28;20031;-33
2024/02/03 02:58:12;;;;;;;16.50;3.40;;;;;;;;;;5073204;28;20020;-34
2024/02/03 03:00:38;;;;;;;11.18;2.90;;;;;;;;;;5075692;28;20471;-34
2024/02/03 03:03:03;;;;;;;13.80;3.60;;;;;;;;;;5073924;28;20178;-34
2024/02/03 03:05:28;;;;;;;12.65;2.80;;;;;;;;;;5074044;28;20482;-33
2024/02/03 03:07:54;;;;;;;13.93;3.05;;;;;;;;;;5073975;28;20035;-34
2024/02/03 03:10:19;;;;;;;14.45;3.50;;;;;;;;;;5073931;28;20028;-34
2024/02/03 03:12:44;;;;;;;12.98;2.80;;;;;;;;;;5074127;28;20044;-34
2024/02/03 03:15:09;;;;;;;14.02;3.10;;;;;;;;;;5073942;28;20017;-34
2024/02/03 03:17:35;;;;;;;12.50;3.55;;;;;;;;;;5075610;28;20021;-34
2024/02/03 03:20:00;;;;;;;18.17;2.60;;;;;;;;;;5075861;28;20028;-34
2024/02/03 03:22:26;;;;;;;15.95;2.83;;;;;;;;;;5076179;28;20107;-33
2024/02/03 03:24:51;;;;;;;13.70;2.55;;;;;;;;;;5076135;28;20371;-34
2024/02/03 03:27:16;;;;;;;15.52;2.72;;;;;;;;;;5075920;28;20024;-34
2024/02/03 03:29:41;;;;;;;11.88;3.00;;;;;;;;;;5076122;28;20364;-35
2024/02/03 03:32:07;;;;;;;12.65;2.70;;;;;;;;;;5074590;28;20473;-34
2024/02/03 03:34:32;;;;;;;15.43;2.67;;;;;;;;;;5075654;28;20093;-34
2024/02/03 03:36:57;;;;;;;12.33;2.47;;;;;;;;;;5076192;28;20261;-34
2024/02/03 03:39:22;;;;;;;13.00;2.70;;;;;;;;;;5075610;28;20681;-34
2024/02/03 03:41:47;;;;;;;13.83;2.63;;;;;;;;;;5075820;28;20379;-34
2024/02/03 03:44:12;;;;;;;9.88;2.67;;;;;;;;;;5075706;28;20258;-34
2024/02/03 03:46:38;;;;;;;10.37;2.47;;;;;;;;;;5075467;28;20016;-34
2024/02/03 03:49:03;;;;;;;14.80;2.75;;;;;;;;;;5075924;28;20271;-34
2024/02/03 03:51:28;;;;;;;11.50;2.57;;;;;;;;;;5075858;28;20030;-34
2024/02/03 03:53:53;;;;;;;9.50;2.40;;;;;;;;;;5075347;28;20741;-34
2024/02/03 03:56:19;;;;;;;13.03;2.50;;;;;;;;;;5076343;28;20294;-34
2024/02/03 03:58:44;;;;;;;10.43;2.53;;;;;;;;;;5075182;28;20247;-34
2024/02/03 04:01:09;;;;;;;12.97;2.50;;;;;;;;;;5075679;28;20247;-34
2024/02/03 04:03:35;;;;;;;12.98;2.88;;;;;;;;;;5075086;28;20318;-34
2024/02/03 04:06:00;;;;;;;11.27;2.20;;;;;;;;;;5075070;28;20020;-42
2024/02/03 04:08:25;;;;;;;11.73;2.70;;;;;;;;;;5075080;28;20302;-34
2024/02/03 04:10:50;;;;;;;9.47;2.50;;;;;;;;;;5073932;28;20753;-34
2024/02/03 04:13:15;;;;;;;12.57;2.30;;;;;;;;;;5074825;28;20263;-34
2024/02/03 04:15:40;;;;;;;10.67;2.07;;;;;;;;;;5074871;28;20640;-34
2024/02/03 04:18:06;;;;;;;10.20;2.28;;;;;;;;;;5075892;28;20334;-34
2024/02/03 04:20:31;;;;;;;12.40;2.33;;;;;;;;;;5074756;28;20056;-34
2024/02/03 04:22:56;;;;;;;11.70;2.30;;;;;;;;;;5075302;28;20096;-35
2024/02/03 04:25:21;;;;;;;14.57;2.60;;;;;;;;;;5074669;28;20247;-34
2024/02/03 04:27:46;;;;;;;11.88;2.33;;;;;;;;;;5075209;28;20309;-34
2024/02/03 04:30:12;;;;;;;8.43;2.23;;;;;;;;;;5075303;28;20393;-34
2024/02/03 04:32:37;;;;;;;9.65;2.42;;;;;;;;;;5074792;28;20262;-34
2024/02/03 04:35:02;;;;;;;9.73;2.87;;;;;;;;;;5074991;28;20095;-34
2024/02/03 04:37:27;;;;;;;10.35;2.22;;;;;;;;;;5074958;28;20282;-34
2024/02/03 04:39:52;;;;;;;9.87;2.30;;;;;;;;;;5074367;28;20059;-34
2024/02/03 04:42:18;;;;;;;6.93;2.50;;;;;;;;;;5074895;28;20286;-34
2024/02/03 04:44:43;;;;;;;9.98;2.55;;;;;;;;;;5074836;28;20251;-37
2024/02/03 04:47:08;;;;;;;13.77;2.88;;;;;;;;;;5074789;28;20025;-34
2024/02/03 04:49:33;;;;;;;10.10;2.40;;;;;;;;;;5074444;28;20016;-35
2024/02/03 04:52:00;;;;;;;10.23;2.50;;;;;;;;;;5074134;28;20283;-34
2024/02/03 04:54:25;;;;;;;12.13;2.40;;;;;;;;;;5074348;28;20266;-35
2024/02/03 04:56:51;;;;;;;10.88;2.38;;;;;;;;;;5074038;28;20460;-34
2024/02/03 04:59:16;;;;;;;12.75;2.40;;;;;;;;;;5074518;28;20043;-35
2024/02/03 05:01:41;;;;;;;9.40;2.10;;;;;;;;;;5073959;28;20024;-34
2024/02/03 05:04:06;;;;;;;15.10;2.47;;;;;;;;;;5073919;28;20302;-34
2024/02/03 05:06:32;;;;;;;12.15;2.50;;;;;;;;;;5074102;28;20648;-34
2024/02/03 05:08:58;;;;;;;10.43;2.42;;;;;;;;;;5074396;28;20016;-34
2024/02/03 05:11:23;;;;;;;12.70;2.55;;;;;;;;;;5073666;28;20093;-34
2024/02/03 05:13:49;;;;;;;12.50;2.53;;;;;;;;;;5074019;28;20048;-34
2024/02/03 05:16:14;;;;;;;9.93;2.07;;;;;;;;;;5074379;28;20028;-34
2024/02/03 05:18:39;;;;;;;9.20;2.33;;;;;;;;;;5073803;28;20583;-34
2024/02/03 05:21:04;;;;;;;9.23;2.47;;;;;;;;;;5074254;28;20035;-34
2024/02/03 05:23:29;;;;;;;9.73;3.47;;;;;;;;;;5073473;28;20246;-34
2024/02/03 05:25:55;;;;;;;13.80;2.72;;;;;;;;;;5073636;28;20262;-34
2024/02/03 05:28:20;;;;;;;9.87;2.33;;;;;;;;;;5073591;28;20016;-34
2024/02/03 05:30:45;;;;;;;13.63;3.20;;;;;;;;;;5073559;28;20843;-35
2024/02/03 05:33:10;;;;;;;11.70;2.63;;;;;;;;;;5073936;28;20259;-35
2024/02/03 05:35:35;;;;;;;9.50;2.50;;;;;;;;;;5074120;28;20255;-34
2024/02/03 05:38:00;;;;;;;13.23;2.33;;;;;;;;;;5073529;28;20251;-34
2024/02/03 05:40:26;;;;;;;16.17;3.17;;;;;;;;;;5073706;28;20271;-34
2024/02/03 05:42:51;;;;;;;14.75;2.95;;;;;;;;;;5073952;28;20025;-34
2024/02/03 05:45:17;;;;;;;13.35;2.65;;;;;;;;;;5073942;28;20024;-34
2024/02/03 05:47:42;;;;;;;9.60;2.45;;;;;;;;;;5073947;28;20178;-34
2024/02/03 05:50:07;;;;;;;11.32;3.40;;;;;;;;;;5073361;28;20376;-34
2024/02/03 05:52:32;;;;;;;10.45;2.50;;;;;;;;;;5073256;28;20027;-34
2024/02/03 05:54:57;;;;;;;12.07;2.20;;;;;;;;;;5072094;28;20012;-34
2024/02/03 05:57:23;;;;;;;7.80;1.97;;;;;;;;;;5073850;28;20334;-33
2024/02/03 05:59:48;;;;;;;14.10;2.58;;;;;;;;;;5073234;28;20618;-34
2024/02/03 06:02:13;;;;;;;16.15;2.90;;;;;;;;;;5073463;28;20044;-34
2024/02/03 06:04:42;;;;;;;11.30;2.70;;;;;;;;;;5073127;28;20063;-33
2024/02/03 06:07:07;;;;;;;15.38;2.30;;;;;;;;;;5073284;28;20099;-34
2024/02/03 06:09:33;;;;;;;6.88;2.03;;;;;;;;;;5073521;28;20021;-34
2024/02/03 06:11:58;;;;;;;8.20;1.98;;;;;;;;;;5073040;28;20520;-34
2024/02/03 06:14:23;;;;;;;10.98;2.30;;;;;;;;;;5073169;28;20017;-34
2024/02/03 06:16:49;;;;;;;12.73;2.30;;;;;;;;;;5073096;28;20024;-34
2024/02/03 06:19:14;;;;;;;10.65;2.33;;;;;;;;;;5073627;28;20016;-34
2024/02/03 06:21:39;;;;;;;8.32;2.38;;;;;;;;;;5073642;28;20085;-33
2024/02/03 06:24:05;;;;;;;12.63;2.80;;;;;;;;;;5073078;28;20517;-34
2024/02/03 06:26:31;;;;;;;10.05;2.47;;;;;;;;;;5073542;28;20261;-34
2024/02/03 06:28:56;;;;;;;11.45;2.88;;;;;;;;;;5073228;28;20017;-33
2024/02/03 06:31:22;;;;;;;11.10;2.50;;;;;;;;;;5072884;28;20081;-34
2024/02/03 06:33:47;;;;;;;10.57;2.50;;;;;;;;;;5074341;28;20059;-34
2024/02/03 06:36:12;;;;;;;9.97;2.20;;;;;;;;;;5076760;28;20606;-34
2024/02/03 06:38:37;;;;;;;10.27;2.43;;;;;;;;;;5077224;28;20021;-34
2024/02/03 06:41:02;;;;;;;10.33;2.40;;;;;;;;;;5077129;28;20257;-34
2024/02/03 06:43:28;;;;;;;13.55;2.78;;;;;;;;;;5076547;28;20324;-34
2024/02/03 06:45:53;;;;;;;13.97;3.03;;;;;;;;;;5076820;28;20122;-34
2024/02/03 06:48:18;;;;;;;11.02;3.60;;;;;;;;;;5076516;28;20266;-33
2024/02/03 06:50:44;;;;;;;12.87;2.67;;;;;;;;;;5076401;28;20052;-33
2024/02/03 06:53:10;;;;;;;16.60;2.63;;;;;;;;;;5076751;28;20273;-33
2024/02/03 06:55:36;;;;;;;11.45;2.70;;;;;;;;;;5075150;28;20012;-34
2024/02/03 06:58:01;;;;;;;11.25;2.55;;;;;;;;;;5076267;28;20017;-34
2024/02/03 07:00:26;;;;;;;8.03;2.50;;;;;;;;;;5076896;28;20012;-34
2024/02/03 07:02:51;;;;;;;9.23;2.40;;;;;;;;;;5075984;28;20365;-34
2024/02/03 07:05:17;;;;;;;9.13;2.83;;;;;;;;;;5076208;28;20074;-34
2024/02/03 07:07:42;;;;;;;12.67;2.90;;;;;;;;;;5076162;28;20262;-34
2024/02/03 07:10:07;;;;;;;14.37;2.70;;;;;;;;;;5076555;28;20258;-34
2024/02/03 07:12:33;;;;;;;10.77;2.70;;;;;;;;;;5076269;28;20258;-34
2024/02/03 07:14:58;;;;;;;9.88;2.75;;;;;;;;;;5075991;28;20012;-34
2024/02/03 07:17:23;;;;;;;11.93;3.00;;;;;;;;;;5074662;28;20049;-34
2024/02/03 07:19:48;;;;;;;8.20;2.60;;;;;;;;;;5075926;28;20286;-34
2024/02/03 07:22:13;;;;;;;22.80;3.43;;;;;;;;;;5076123;28;20259;-33
2024/02/03 07:24:39;;;;;;;12.07;3.25;;;;;;;;;;5075795;28;20270;-34
2024/02/03 07:27:04;;;;;;;11.10;2.58;;;;;;;;;;5075774;28;20023;-34
2024/02/03 07:29:29;;;;;;;17.85;3.30;;;;;;;;;;5076304;28;20036;-34
2024/02/03 07:32:01;;;;;;;13.90;3.00;;;;;;;;;;5075630;28;20452;-34
2024/02/03 07:34:27;;;;;;;10.93;3.10;;;;;;;;;;5075610;28;20078;-34
2024/02/03 07:36:52;;;;;;;7.57;2.80;;;;;;;;;;5075858;28;20017;-34
2024/02/03 07:39:17;;;;;;;9.60;2.85;;;;;;;;;;5075528;28;20024;-33
2024/02/03 07:41:42;;;;;;;13.35;2.90;;;;;;;;;;5075772;28;20060;-34
2024/02/03 07:44:08;;;;;;;11.20;3.07;;;;;;;;;;5075557;28;20023;-33
2024/02/03 07:46:33;;;;;;;11.23;3.27;;;;;;;;;;5075865;28;20271;-33
2024/02/03 07:48:58;;;;;;;11.13;2.33;;;;;;;;;;5075256;28;20293;-34
2024/02/03 07:51:23;;;;;;;12.90;2.83;;;;;;;;;;5075156;28;20297;-33
2024/02/03 07:53:48;;;;;;;18.60;2.65;;;;;;;;;;5075525;28;20259;-34
2024/02/03 07:56:13;;;;;;;12.10;2.88;;;;;;;;;;5075414;28;20012;-39
2024/02/03 07:58:39;;;;;;;12.77;3.40;;;;;;;;;;5075286;28;20017;-34
2024/02/03 08:01:04;;;;;;;14.40;2.40;;;;;;;;;;5075178;28;20664;-35
2024/02/03 08:03:29;;;;;;;8.80;2.15;;;;;;;;;;5075887;28;20318;-34
2024/02/03 08:05:54;;;;;;;12.00;2.67;;;;;;;;;;5073867;28;20028;-34
2024/02/03 08:08:19;;;;;;;14.00;2.80;;;;;;;;;;5075025;28;20021;-33
2024/02/03 08:10:44;;;;;;;7.25;2.30;;;;;;;;;;5075186;28;20290;-33
2024/02/03 08:13:10;;;;;;;12.83;2.40;;;;;;;;;;5075293;28;20065;-33
2024/02/03 08:15:35;;;;;;;14.15;2.65;;;;;;;;;;5074899;28;20265;-34
2024/02/03 08:18:00;;;;;;;10.67;2.70;;;;;;;;;;5073510;28;20371;-34
2024/02/03 08:20:25;;;;;;;11.37;2.33;;;;;;;;;;5075348;28;20261;-34
2024/02/03 08:22:52;;;;;;;17.30;2.93;;;;;;;;;;5074729;28;20028;-35
2024/02/03 08:25:17;;;;;;;9.38;2.25;;;;;;;;;;5074627;28;20016;-35
2024/02/03 08:27:42;;;;;;;14.27;2.87;;;;;;;;;;5074627;28;20099;-34
2024/02/03 08:30:07;;;;;;;13.13;2.43;;;;;;;;;;5074420;28;20776;-33
2024/02/03 08:32:33;;;;;;;11.95;2.40;;;;;;;;;;5075035;28;20250;-34
2024/02/03 08:34:58;;;;;;;11.55;2.28;;;;;;;;;;5074743;28;20016;-34
2024/02/03 08:37:23;;;;;;;10.43;2.63;;;;;;;;;;5074955;28;20020;-34
2024/02/03 08:39:48;;;;;;;11.60;2.60;;;;;;;;;;5074497;28;20680;-35
2024/02/03 08:42:15;;;;;;;11.27;2.10;;;;;;;;;;5074319;28;20259;-35
2024/02/03 08:44:40;;;;;;;9.23;3.13;;;;;;;;;;5074188;28;20032;-35
2024/02/03 08:47:05;;;;;;;15.63;2.63;;;;;;;;;;5074095;28;20025;-34
2024/02/03 08:49:30;;;;;;;12.27;3.08;;;;;;;;;;5074126;28;20708;-34
2024/02/03 08:51:55;;;;;;;10.87;2.60;;;;;;;;;;5073985;28;20023;-34
2024/02/03 08:54:21;;;;;;;10.55;2.33;;;;;;;;;;5074201;28;20338;-33
2024/02/03 08:56:46;;;;;;;10.70;2.33;;;;;;;;;;5073824;28;20441;-32
2024/02/03 08:59:11;;;;;;;10.48;2.42;;;;;;;;;;5074278;28;20371;-33
2024/02/03 09:01:36;;;;;;;9.95;2.42;;;;;;;;;;5073907;28;20430;-32
2024/02/03 09:04:04;;;;;;;8.87;2.17;;;;;;;;;;5073502;28;20106;-34
2024/02/03 09:06:29;;;;;;;9.73;2.03;;;;;;;;;;5073933;28;20340;-34
2024/02/03 09:08:54;;;;;;;9.73;2.05;;;;;;;;;;5073989;28;20037;-34
2024/02/03 09:11:20;;;;;;;13.23;2.35;;;;;;;;;;5073079;28;20352;-34
2024/02/03 09:13:46;;;;;;;12.75;2.30;;;;;;;;;;5073436;28;20115;-33
2024/02/03 09:16:11;;;;;;;13.70;2.60;;;;;;;;;;5073762;28;20044;-42
2024/02/03 09:18:36;;;;;;;12.30;2.13;;;;;;;;;;5073656;28;20270;-33
2024/02/03 09:21:02;;;;;;;7.80;2.67;;;;;;;;;;5074309;28;20024;-34
2024/02/03 09:23:27;;;;;;;10.73;1.92;;;;;;;;;;5073612;28;20169;-34
2024/02/03 09:25:53;;;;;;;19.13;2.50;;;;;;;;;;5073725;28;20467;-34
2024/02/03 09:28:18;;;;;;;13.48;2.80;;;;;;;;;;5073577;28;20730;-34
2024/02/03 09:30:44;;;;;;;10.93;2.50;;;;;;;;;;5074041;28;20024;-34
2024/02/03 09:33:09;;;;;;;7.83;1.93;;;;;;;;;;5073802;28;20330;-33
2024/02/03 09:35:34;;;;;;;12.13;2.40;;;;;;;;;;5074044;28;20243;-34
2024/02/03 09:37:59;;;;;;;11.20;2.13;;;;;;;;;;5073588;28;20361;-34
2024/02/03 09:40:24;;;;;;;9.67;2.00;;;;;;;;;;5073473;28;20016;-34
2024/02/03 09:42:50;;;;;;;8.82;1.85;;;;;;;;;;5073629;28;20294;-34
2024/02/03 09:45:16;;;;;;;10.43;2.15;;;;;;;;;;5073385;28;20393;-34
2024/02/03 09:47:41;;;;;;;7.70;2.00;;;;;;;;;;5073942;28;20104;-34
2024/02/03 09:50:07;;;;;;;10.75;2.00;;;;;;;;;;5073334;28;20463;-34
2024/02/03 09:52:33;;;;;;;12.88;2.30;;;;;;;;;;5073105;28;20029;-34
2024/02/03 09:54:58;;;;;;;11.50;1.85;;;;;;;;;;5073197;28;20013;-34
2024/02/03 09:57:24;;;;;;;19.67;3.80;;;;;;;;;;5071611;28;20021;-34
2024/02/03 09:59:50;;;;;;;12.98;2.17;;;;;;;;;;5072362;28;20025;-34
2024/02/03 10:02:16;;;;;;;10.35;1.90;;;;;;;;;;5073056;28;20066;-34
2024/02/03 10:04:44;;;;;;;9.52;2.15;;;;;;;;;;5072959;28;20487;-34
2024/02/03 10:07:09;;;;;;;9.05;2.03;;;;;;;;;;5073488;28;20021;-34
2024/02/03 10:09:35;;;;;;;8.02;2.15;;;;;;;;;;5075390;28;20422;-34
2024/02/03 10:12:00;;;;;;;10.90;1.75;;;;;;;;;;5077084;28;20020;-34
2024/02/03 10:14:25;;;;;;;9.30;2.03;;;;;;;;;;5077749;28;20084;-34
2024/02/03 10:16:50;;;;;;;9.70;1.83;;;;;;;;;;5077151;28;20297;-34
2024/02/03 10:19:15;;;;;;;9.73;1.83;;;;;;;;;;5077004;28;20243;-33
2024/02/03 10:21:41;;;;;;;9.38;2.00;;;;;;;;;;5076931;28;20025;-34
2024/02/03 10:24:06;;;;;;;15.48;2.80;;;;;;;;;;5077474;28;20029;-33
2024/02/03 10:26:31;;;;;;;10.75;2.50;;;;;;;;;;5076948;28;20021;-34
2024/02/03 10:28:56;;;;;;;9.20;2.03;;;;;;;;;;5076845;28;20476;-34
2024/02/03 10:31:22;;;;;;;6.68;2.00;;;;;;;;;;5076929;28;20267;-34
2024/02/03 10:33:48;;;;;;;10.70;2.42;;;;;;;;;;5077133;28;20008;-34
2024/02/03 10:36:13;;;;;;;11.60;1.98;;;;;;;;;;5077264;28;20026;-34
2024/02/03 10:38:38;;;;;;;7.30;2.03;;;;;;;;;;5076913;28;20008;-34
2024/02/03 10:41:04;;;;;;;8.43;2.17;;;;;;;;;;5076895;28;20669;-34
2024/02/03 10:43:33;;;;;;;8.55;1.80;;;;;;;;;;5077358;28;20028;-34
2024/02/03 10:46:01;;;;;;;9.75;1.80;;;;;;;;;;5076534;28;20086;-34
2024/02/03 10:48:28;;;;;;;5.53;1.60;;;;;;;;;;5076411;28;20025;-34
2024/02/03 10:50:56;;;;;;;7.43;1.90;;;;;;;;;;5076576;28;20079;-34
2024/02/03 10:53:28;;;;;;;12.07;1.70;;;;;;;;;;5076449;28;20380;-34
2024/02/03 10:55:57;;;;;;;9.13;2.38;;;;;;;;;;5076232;28;20017;-35
2024/02/03 10:58:24;;;;;;;8.70;1.90;;;;;;;;;;5076127;28;20012;-34
2024/02/03 11:00:51;;;;;;;11.20;2.30;;;;;;;;;;5076272;28;20024;-34
2024/02/03 11:03:16;;;;;;;10.30;2.00;;;;;;;;;;5075550;28;20048;-34
2024/02/03 11:05:42;;;;;;;7.10;1.80;;;;;;;;;;5075390;28;20020;-34
2024/02/03 11:08:10;;;;;;;5.13;1.67;;;;;;;;;;5074851;28;20255;-34
2024/02/03 11:10:36;;;;;;;9.95;2.00;;;;;;;;;;5074677;28;20095;-34
2024/02/03 11:13:17;;;;;;;7.60;2.10;;;;;;;;;;5074797;28;20021;-33
2024/02/03 11:15:43;;;;;;;8.32;1.90;;;;;;;;;;5074857;28;20099;-34
2024/02/03 11:18:11;;;;;;;6.47;1.85;;;;;;;;;;5075122;28;20090;-34
2024/02/03 11:20:37;;;;;;;12.23;2.08;;;;;;;;;;5074719;28;20105;-34
2024/02/03 11:23:08;;;;;;;8.50;2.03;;;;;;;;;;5074766;28;20406;-34
2024/02/03 11:25:34;;;;;;;7.68;1.65;;;;;;;;;;5075113;28;20024;-35
2024/02/03 11:27:59;;;;;;;6.93;1.83;;;;;;;;;;5075060;28;20442;-35
2024/02/03 11:30:24;;;;;;;5.57;1.93;;;;;;;;;;5074568;28;20056;-34
2024/02/03 11:32:54;;;;;;;8.20;2.00;;;;;;;;;;5074943;28;20330;-35
2024/02/03 11:35:21;;;;;;;7.68;2.03;;;;;;;;;;5074865;28;20251;-34
2024/02/03 11:37:46;;;;;;;7.72;2.00;;;;;;;;;;5074879;28;20099;-32
2024/02/03 11:40:12;;;;;;;12.13;2.03;;;;;;;;;;5074435;28;20060;-32
2024/02/03 11:42:37;;;;;;;5.35;1.77;;;;;;;;;;5074493;28;20265;-34
2024/02/03 11:45:03;;;;;;;8.15;2.08;;;;;;;;;;5074332;28;20122;-34
2024/02/03 11:47:29;;;;;;;10.85;2.28;;;;;;;;;;5074566;28;20032;-34
2024/02/03 11:49:54;;;;;;;9.32;2.22;;;;;;;;;;5073795;28;20024;-35
2024/02/03 11:52:22;;;;;;;8.40;2.30;;;;;;;;;;5074503;28;20478;-34
2024/02/03 11:54:48;;;;;;;4.63;1.80;;;;;;;;;;5074511;28;20024;-33
2024/02/03 11:57:13;;;;;;;7.80;2.00;;;;;;;;;;5074438;28;20021;-34
2024/02/03 11:59:38;;;;;;;7.35;2.35;;;;;;;;;;5072396;28;20455;-34
2024/02/03 12:02:06;;;;;;;7.43;2.07;;;;;;;;;;5073215;28;20581;-33
2024/02/03 12:04:33;;;;;;;8.82;1.95;;;;;;;;;;5038028;28;1038742;-33
2024/02/03 12:06:58;;;;;;;13.38;2.20;;;;;;;;;;5075031;28;20024;-34
2024/02/03 12:09:23;;;;;;;10.25;2.00;;;;;;;;;;5073808;28;20024;-34
2024/02/03 12:11:51;;;;;;;7.90;2.15;;;;;;;;;;5075127;28;20033;-33
2024/02/03 12:14:20;;;;;;;10.30;1.88;;;;;;;;;;5074837;28;20009;-33
2024/02/03 12:16:45;;;;;;;9.50;2.20;;;;;;;;;;5074769;28;20061;-34
2024/02/03 12:19:11;;;;;;;6.07;2.30;;;;;;;;;;5074822;28;20091;-34
2024/02/03 12:21:36;;;;;;;12.95;2.40;;;;;;;;;;5073548;28;20024;-33
2024/02/03 12:24:01;;;;;;;8.80;2.20;;;;;;;;;;5074592;28;20020;-33
2024/02/03 12:26:26;;;;;;;13.45;2.35;;;;;;;;;;5074587;28;20126;-34
2024/02/03 12:28:52;;;;;;;11.77;2.20;;;;;;;;;;5075223;28;20028;-33
2024/02/03 12:31:17;;;;;;;10.63;2.53;;;;;;;;;;5073614;28;20056;-33
2024/02/03 12:33:42;;;;;;;8.43;2.40;;;;;;;;;;5074551;28;20030;-33
2024/02/03 12:36:08;;;;;;;7.30;2.40;;;;;;;;;;5074427;28;20254;-34
2024/02/03 12:38:34;;;;;;;12.32;2.20;;;;;;;;;;5074917;28;20300;-34
2024/02/03 12:41:00;;;;;;;6.38;2.13;;;;;;;;;;5074370;28;20028;-33
2024/02/03 12:43:25;;;;;;;9.80;2.65;;;;;;;;;;5074251;28;20467;-33
2024/02/03 12:45:50;;;;;;;7.57;2.23;;;;;;;;;;5074641;28;20017;-34
2024/02/03 12:48:15;;;;;;;10.07;2.27;;;;;;;;;;5074269;28;20330;-34
2024/02/03 12:50:41;;;;;;;9.17;2.53;;;;;;;;;;5074630;28;20278;-34
2024/02/03 12:53:07;;;;;;;5.95;2.00;;;;;;;;;;5074360;28;20255;-33
2024/02/03 12:55:32;;;;;;;9.52;2.55;;;;;;;;;;5072755;28;20479;-33
2024/02/03 12:57:59;;;;;;;10.03;2.23;;;;;;;;;;5073999;28;20024;-34
2024/02/03 13:00:24;;;;;;;8.88;1.83;;;;;;;;;;5074206;28;20722;-34
2024/02/03 13:02:49;;;;;;;13.95;2.08;;;;;;;;;;5073680;28;20013;-33
2024/02/03 13:05:14;;;;;;;8.82;2.00;;;;;;;;;;5074505;28;20020;-34
2024/02/03 13:07:40;;;;;;;10.03;2.20;;;;;;;;;;5074176;28;20016;-33
2024/02/03 13:10:06;;;;;;;8.88;2.00;;;;;;;;;;5073842;28;20012;-34
2024/02/03 13:12:31;;;;;;;7.43;2.08;;;;;;;;;;5073486;28;20430;-33
2024/02/03 13:14:57;;;;;;;7.45;2.08;;;;;;;;;;5073747;28;20424;-33
2024/02/03 13:17:22;;;;;;;5.47;2.08;;;;;;;;;;5073724;28;20020;-34
2024/02/03 13:19:47;;;;;;;7.68;1.98;;;;;;;;;;5072399;28;20040;-33
2024/02/03 13:22:13;;;;;;;9.18;2.40;;;;;;;;;;5073675;28;20016;-33
2024/02/03 13:24:38;;;;;;;5.72;2.13;;;;;;;;;;5073650;28;20044;-33
2024/02/03 13:27:03;;;;;;;10.25;2.30;;;;;;;;;;5074134;28;20020;-34
2024/02/03 13:29:29;;;;;;;6.68;1.98;;;;;;;;;;5073537;28;20024;-33
2024/02/03 13:31:54;;;;;;;10.02;2.92;;;;;;;;;;5073766;28;20020;-33
2024/02/03 13:34:19;;;;;;;12.73;2.27;;;;;;;;;;5074075;28;20029;-33
2024/02/03 13:36:44;;;;;;;7.77;1.97;;;;;;;;;;5073497;28;20247;-34
2024/02/03 13:39:10;;;;;;;8.47;1.97;;;;;;;;;;5073517;28;20788;-34
2024/02/03 13:41:35;;;;;;;7.78;2.55;;;;;;;;;;5073648;28;20273;-33
2024/02/03 13:44:00;;;;;;;9.05;2.10;;;;;;;;;;5073300;28;20025;-34
2024/02/03 13:46:26;;;;;;;5.30;2.10;;;;;;;;;;5073346;28;20471;-33
2024/02/03 13:48:51;;;;;;;9.50;2.13;;;;;;;;;;5073617;28;20259;-34
2024/02/03 13:51:17;;;;;;;7.75;2.15;;;;;;;;;;5073569;28;20100;-33
2024/02/03 13:53:42;;;;;;;8.90;2.10;;;;;;;;;;5073337;28;20091;-34
2024/02/03 13:56:07;;;;;;;7.78;1.90;;;;;;;;;;5073118;28;20017;-33
2024/02/03 13:58:32;;;;;;;8.00;2.10;;;;;;;;;;5073286;28;20027;-33
2024/02/03 14:00:58;;;;;;;8.95;2.22;;;;;;;;;;5071983;28;20266;-33
2024/02/03 14:03:23;;;;;;;13.52;2.50;;;;;;;;;;5073079;28;20049;-33
2024/02/03 14:05:48;;;;;;;8.73;2.27;;;;;;;;;;5073152;28;20016;-33
2024/02/03 14:08:13;;;;;;;10.35;2.30;;;;;;;;;;5073114;28;20309;-34
2024/02/03 14:10:39;;;;;;;12.00;2.47;;;;;;;;;;5073578;28;20052;-33
2024/02/03 14:13:04;;;;;;;6.75;2.20;;;;;;;;;;5073343;28;20021;-34
2024/02/03 14:15:29;;;;;;;7.05;2.13;;;;;;;;;;5073063;28;20531;-33
2024/02/03 14:17:54;;;;;;;10.20;4.03;;;;;;;;;;5073111;28;20021;-33
2024/02/03 14:20:20;;;;;;;7.85;2.33;;;;;;;;;;5072996;28;20020;-33
2024/02/03 14:22:45;;;;;;;11.80;2.40;;;;;;;;;;5073130;28;20016;-33